Manvel, North Dakota
Current Conditions -  °F | °C
As of 11:53 PM on Thursday 30 Oct 2014 (Local Time) from KGFK Reporting Station
Clear Clear  
Wind Chill: 11°   Ceiling: Unl
Heat Index: 20°   Visibility: 10mi
Dew Point: 16°   Wind: 7mph
Humidity: 85%   Direction: 320°NW
Pressure: 30.58"   Gusts: NA
Location:  48.08°N, 97.18°W
Report Text: KGFK 310453Z AUTO 32006KT 10SM CLR M07/M09 A3058 RMK AO2 SLP371 T10671089 TSNO
Loading
Personal Weather Stations






























Interactive Weather Map
Tropical Storm Tracking
New forecast layout! Learn more

10-Day Weather Forecast

Advertisements
Track Severe Weather on mobile